sensor_id;sensor_type;location;lat;lon;timestamp;temperature;humidity
20862;DHT22;10591;52.532;13.348;2022-10-13T00:02:11;9.08;78.29
20862;DHT22;10591;52.532;13.348;2022-10-13T00:04:41;9.02;78.50
20862;DHT22;10591;52.532;13.348;2022-10-13T00:07:12;8.99;78.61
20862;DHT22;10591;52.532;13.348;2022-10-13T00:09:42;8.96;78.68
20862;DHT22;10591;52.532;13.348;2022-10-13T00:12:13;8.95;78.83
20862;DHT22;10591;52.532;13.348;2022-10-13T00:14:43;8.97;78.63
20862;DHT22;10591;52.532;13.348;2022-10-13T00:17:13;8.92;78.85
20862;DHT22;10591;52.532;13.348;2022-10-13T00:19:44;8.88;78.91
20862;DHT22;10591;52.532;13.348;2022-10-13T00:22:14;8.95;78.80
20862;DHT22;10591;52.532;13.348;2022-10-13T00:24:50;8.93;78.90
20862;DHT22;10591;52.532;13.348;2022-10-13T00:27:20;8.87;79.21
20862;DHT22;10591;52.532;13.348;2022-10-13T00:29:50;8.82;79.17
20862;DHT22;10591;52.532;13.348;2022-10-13T00:32:21;8.78;79.31
20862;DHT22;10591;52.532;13.348;2022-10-13T00:34:51;8.75;79.55
20862;DHT22;10591;52.532;13.348;2022-10-13T00:37:22;8.74;79.57
20862;DHT22;10591;52.532;13.348;2022-10-13T00:39:52;8.74;79.62
20862;DHT22;10591;52.532;13.348;2022-10-13T00:42:23;8.70;79.71
20862;DHT22;10591;52.532;13.348;2022-10-13T00:47:44;8.64;79.69
20862;DHT22;10591;52.532;13.348;2022-10-13T00:50:20;8.67;79.84
20862;DHT22;10591;52.532;13.348;2022-10-13T00:52:52;8.61;79.86
20862;DHT22;10591;52.532;13.348;2022-10-13T00:55:25;8.60;80.10
20862;DHT22;10591;52.532;13.348;2022-10-13T00:57:59;8.58;80.09
20862;DHT22;10591;52.532;13.348;2022-10-13T01:00:33;8.58;80.29
20862;DHT22;10591;52.532;13.348;2022-10-13T01:03:04;8.56;80.36
20862;DHT22;10591;52.532;13.348;2022-10-13T01:05:35;8.60;80.39
20862;DHT22;10591;52.532;13.348;2022-10-13T01:08:05;8.52;80.48
20862;DHT22;10591;52.532;13.348;2022-10-13T01:25:35;8.54;80.57
20862;DHT22;10591;52.532;13.348;2022-10-13T01:30:59;8.46;81.08
20862;DHT22;10591;52.532;13.348;2022-10-13T01:33:43;8.41;81.00
20862;DHT22;10591;52.532;13.348;2022-10-13T01:36:15;8.37;81.11
20862;DHT22;10591;52.532;13.348;2022-10-13T01:38:52;8.32;81.15
20862;DHT22;10591;52.532;13.348;2022-10-13T01:44:25;8.30;81.33
20862;DHT22;10591;52.532;13.348;2022-10-13T01:46:56;8.32;81.24
20862;DHT22;10591;52.532;13.348;2022-10-13T01:49:30;8.31;81.19
20862;DHT22;10591;52.532;13.348;2022-10-13T01:52:06;8.29;81.16
20862;DHT22;10591;52.532;13.348;2022-10-13T01:54:37;8.27;81.30
20862;DHT22;10591;52.532;13.348;2022-10-13T02:00:21;8.26;81.40
20862;DHT22;10591;52.532;13.348;2022-10-13T02:06:17;8.25;81.66
20862;DHT22;10591;52.532;13.348;2022-10-13T02:08:12;8.25;81.64
20862;DHT22;10591;52.532;13.348;2022-10-13T02:11:24;8.30;81.67
20862;DHT22;10591;52.532;13.348;2022-10-13T02:13:28;8.34;81.56
20862;DHT22;10591;52.532;13.348;2022-10-13T02:16:01;8.33;81.56
20862;DHT22;10591;52.532;13.348;2022-10-13T02:18:33;8.22;81.56
20862;DHT22;10591;52.532;13.348;2022-10-13T02:21:05;8.16;81.69
20862;DHT22;10591;52.532;13.348;2022-10-13T02:23:35;8.16;81.64
20862;DHT22;10591;52.532;13.348;2022-10-13T02:26:06;8.13;81.85
20862;DHT22;10591;52.532;13.348;2022-10-13T02:28:37;8.11;81.96
20862;DHT22;10591;52.532;13.348;2022-10-13T02:31:08;8.16;81.90
20862;DHT22;10591;52.532;13.348;2022-10-13T02:33:39;8.16;82.02
20862;DHT22;10591;52.532;13.348;2022-10-13T02:36:09;8.15;82.02
20862;DHT22;10591;52.532;13.348;2022-10-13T02:38:41;8.16;81.97
20862;DHT22;10591;52.532;13.348;2022-10-13T02:41:11;8.14;82.14
20862;DHT22;10591;52.532;13.348;2022-10-13T02:43:42;8.16;82.12
20862;DHT22;10591;52.532;13.348;2022-10-13T02:46:12;8.08;82.06
20862;DHT22;10591;52.532;13.348;2022-10-13T02:48:43;8.12;82.44
20862;DHT22;10591;52.532;13.348;2022-10-13T02:51:14;8.10;82.34
20862;DHT22;10591;52.532;13.348;2022-10-13T02:53:44;8.06;82.24
20862;DHT22;10591;52.532;13.348;2022-10-13T02:56:15;8.02;82.35
20862;DHT22;10591;52.532;13.348;2022-10-13T02:58:45;8.05;82.40
20862;DHT22;10591;52.532;13.348;2022-10-13T03:01:16;8.01;82.61
20862;DHT22;10591;52.532;13.348;2022-10-13T03:03:46;7.98;82.65
20862;DHT22;10591;52.532;13.348;2022-10-13T03:06:16;8.00;82.67
20862;DHT22;10591;52.532;13.348;2022-10-13T03:08:47;7.99;82.65
20862;DHT22;10591;52.532;13.348;2022-10-13T03:11:17;7.96;82.60
20862;DHT22;10591;52.532;13.348;2022-10-13T03:13:47;7.94;82.62
20862;DHT22;10591;52.532;13.348;2022-10-13T03:16:18;7.92;82.61
20862;DHT22;10591;52.532;13.348;2022-10-13T03:18:49;7.90;82.70
20862;DHT22;10591;52.532;13.348;2022-10-13T03:21:19;7.92;82.49
20862;DHT22;10591;52.532;13.348;2022-10-13T03:23:49;7.86;82.62
20862;DHT22;10591;52.532;13.348;2022-10-13T03:26:20;7.82;82.71
20862;DHT22;10591;52.532;13.348;2022-10-13T03:28:51;7.82;82.75
20862;DHT22;10591;52.532;13.348;2022-10-13T03:31:22;7.84;82.80
20862;DHT22;10591;52.532;13.348;2022-10-13T03:33:52;7.81;82.87
20862;DHT22;10591;52.532;13.348;2022-10-13T03:36:23;7.79;82.93
20862;DHT22;10591;52.532;13.348;2022-10-13T03:38:53;7.74;82.99
20862;DHT22;10591;52.532;13.348;2022-10-13T03:41:23;7.79;83.17
20862;DHT22;10591;52.532;13.348;2022-10-13T03:43:54;7.76;83.07
20862;DHT22;10591;52.532;13.348;2022-10-13T03:46:26;7.80;82.96
20862;DHT22;10591;52.532;13.348;2022-10-13T03:48:57;7.81;82.91
20862;DHT22;10591;52.532;13.348;2022-10-13T03:51:27;7.88;82.76
20862;DHT22;10591;52.532;13.348;2022-10-13T03:53:58;7.94;82.73
20862;DHT22;10591;52.532;13.348;2022-10-13T03:56:28;8.03;82.47
20862;DHT22;10591;52.532;13.348;2022-10-13T03:58:59;8.03;82.33
20862;DHT22;10591;52.532;13.348;2022-10-13T04:01:32;8.08;82.24
20862;DHT22;10591;52.532;13.348;2022-10-13T04:04:03;8.08;82.10
20862;DHT22;10591;52.532;13.348;2022-10-13T04:06:35;8.13;82.06
20862;DHT22;10591;52.532;13.348;2022-10-13T04:09:06;8.18;81.88
20862;DHT22;10591;52.532;13.348;2022-10-13T04:11:36;8.20;81.65
20862;DHT22;10591;52.532;13.348;2022-10-13T04:14:07;8.16;81.67
20862;DHT22;10591;52.532;13.348;2022-10-13T04:16:38;8.20;81.73
20862;DHT22;10591;52.532;13.348;2022-10-13T04:19:11;8.16;81.71
20862;DHT22;10591;52.532;13.348;2022-10-13T04:21:42;8.21;81.65
20862;DHT22;10591;52.532;13.348;2022-10-13T04:24:13;8.14;81.64
20862;DHT22;10591;52.532;13.348;2022-10-13T04:26:45;8.15;81.76
20862;DHT22;10591;52.532;13.348;2022-10-13T04:29:16;8.14;81.80
20862;DHT22;10591;52.532;13.348;2022-10-13T04:31:46;8.14;81.68
20862;DHT22;10591;52.532;13.348;2022-10-13T04:34:20;8.16;81.97
20862;DHT22;10591;52.532;13.348;2022-10-13T04:36:50;8.10;81.87
20862;DHT22;10591;52.532;13.348;2022-10-13T04:39:20;8.21;81.99
20862;DHT22;10591;52.532;13.348;2022-10-13T04:41:51;8.23;81.89
20862;DHT22;10591;52.532;13.348;2022-10-13T04:44:21;8.18;81.89
20862;DHT22;10591;52.532;13.348;2022-10-13T04:46:52;8.21;81.84
20862;DHT22;10591;52.532;13.348;2022-10-13T04:49:23;8.21;81.85
20862;DHT22;10591;52.532;13.348;2022-10-13T04:51:53;8.18;81.88
20862;DHT22;10591;52.532;13.348;2022-10-13T04:54:24;8.22;81.85
20862;DHT22;10591;52.532;13.348;2022-10-13T04:56:54;8.20;81.84
20862;DHT22;10591;52.532;13.348;2022-10-13T04:59:25;8.22;81.94
20862;DHT22;10591;52.532;13.348;2022-10-13T05:01:55;8.27;81.55
20862;DHT22;10591;52.532;13.348;2022-10-13T05:04:25;8.23;81.94
20862;DHT22;10591;52.532;13.348;2022-10-13T05:06:56;8.21;81.89
20862;DHT22;10591;52.532;13.348;2022-10-13T05:09:28;8.23;81.94
20862;DHT22;10591;52.532;13.348;2022-10-13T05:11:58;8.30;81.72
20862;DHT22;10591;52.532;13.348;2022-10-13T05:14:30;8.28;81.96
20862;DHT22;10591;52.532;13.348;2022-10-13T05:17:01;8.27;81.83
20862;DHT22;10591;52.532;13.348;2022-10-13T05:19:32;8.22;81.97
20862;DHT22;10591;52.532;13.348;2022-10-13T05:22:02;8.17;82.19
20862;DHT22;10591;52.532;13.348;2022-10-13T05:24:32;8.23;82.13
20862;DHT22;10591;52.532;13.348;2022-10-13T05:27:10;8.28;82.19
20862;DHT22;10591;52.532;13.348;2022-10-13T05:29:40;8.26;82.14
20862;DHT22;10591;52.532;13.348;2022-10-13T05:32:11;8.22;82.11
20862;DHT22;10591;52.532;13.348;2022-10-13T05:34:41;8.22;82.37
20862;DHT22;10591;52.532;13.348;2022-10-13T05:37:12;8.30;82.34
20862;DHT22;10591;52.532;13.348;2022-10-13T05:39:44;8.25;82.31
20862;DHT22;10591;52.532;13.348;2022-10-13T05:42:16;8.33;82.32
20862;DHT22;10591;52.532;13.348;2022-10-13T05:44:47;8.28;82.33
20862;DHT22;10591;52.532;13.348;2022-10-13T05:47:17;8.31;82.39
20862;DHT22;10591;52.532;13.348;2022-10-13T05:49:48;8.40;82.08
20862;DHT22;10591;52.532;13.348;2022-10-13T05:52:18;8.38;82.17
20862;DHT22;10591;52.532;13.348;2022-10-13T05:54:52;8.41;82.06
20862;DHT22;10591;52.532;13.348;2022-10-13T05:57:32;8.36;81.93
20862;DHT22;10591;52.532;13.348;2022-10-13T06:00:25;8.41;81.94
20862;DHT22;10591;52.532;13.348;2022-10-13T06:02:53;8.35;82.09
20862;DHT22;10591;52.532;13.348;2022-10-13T06:05:17;8.46;81.93
20862;DHT22;10591;52.532;13.348;2022-10-13T06:07:48;8.44;82.02
20862;DHT22;10591;52.532;13.348;2022-10-13T06:10:19;8.43;82.25
20862;DHT22;10591;52.532;13.348;2022-10-13T06:12:51;8.34;82.35
20862;DHT22;10591;52.532;13.348;2022-10-13T06:15:45;8.34;82.17
20862;DHT22;10591;52.532;13.348;2022-10-13T06:18:16;8.36;82.38
20862;DHT22;10591;52.532;13.348;2022-10-13T06:20:46;8.26;82.65
20862;DHT22;10591;52.532;13.348;2022-10-13T06:23:16;8.29;82.77
20862;DHT22;10591;52.532;13.348;2022-10-13T06:25:51;8.33;82.75
20862;DHT22;10591;52.532;13.348;2022-10-13T06:28:22;8.33;82.71
20862;DHT22;10591;52.532;13.348;2022-10-13T06:30:52;8.30;82.74
20862;DHT22;10591;52.532;13.348;2022-10-13T06:33:24;8.22;82.99
20862;DHT22;10591;52.532;13.348;2022-10-13T06:35:55;8.26;83.23
20862;DHT22;10591;52.532;13.348;2022-10-13T06:38:25;8.18;83.26
20862;DHT22;10591;52.532;13.348;2022-10-13T06:41:00;8.25;83.35
20862;DHT22;10591;52.532;13.348;2022-10-13T06:43:32;8.30;83.21
20862;DHT22;10591;52.532;13.348;2022-10-13T06:46:04;8.21;83.31
20862;DHT22;10591;52.532;13.348;2022-10-13T06:48:35;8.24;83.37
20862;DHT22;10591;52.532;13.348;2022-10-13T06:51:08;8.24;83.12
20862;DHT22;10591;52.532;13.348;2022-10-13T06:53:39;8.38;83.02
20862;DHT22;10591;52.532;13.348;2022-10-13T06:56:09;8.35;83.01
20862;DHT22;10591;52.532;13.348;2022-10-13T06:58:40;8.42;82.80
20862;DHT22;10591;52.532;13.348;2022-10-13T07:01:12;8.50;82.72
20862;DHT22;10591;52.532;13.348;2022-10-13T07:03:43;8.45;82.59
20862;DHT22;10591;52.532;13.348;2022-10-13T07:06:13;8.61;82.27
20862;DHT22;10591;52.532;13.348;2022-10-13T07:08:44;8.56;82.45
20862;DHT22;10591;52.532;13.348;2022-10-13T07:11:14;8.60;82.53
20862;DHT22;10591;52.532;13.348;2022-10-13T07:13:45;8.68;82.24
20862;DHT22;10591;52.532;13.348;2022-10-13T07:16:16;8.80;82.14
20862;DHT22;10591;52.532;13.348;2022-10-13T07:18:47;8.94;81.80
20862;DHT22;10591;52.532;13.348;2022-10-13T07:21:17;8.90;81.40
20862;DHT22;10591;52.532;13.348;2022-10-13T07:23:48;8.80;81.75
20862;DHT22;10591;52.532;13.348;2022-10-13T07:26:19;8.90;81.67
20862;DHT22;10591;52.532;13.348;2022-10-13T07:28:49;8.76;81.92
20862;DHT22;10591;52.532;13.348;2022-10-13T07:31:20;8.97;81.68
20862;DHT22;10591;52.532;13.348;2022-10-13T07:33:50;9.08;81.37
20862;DHT22;10591;52.532;13.348;2022-10-13T07:36:21;9.08;81.37
20862;DHT22;10591;52.532;13.348;2022-10-13T07:38:51;9.24;81.23
20862;DHT22;10591;52.532;13.348;2022-10-13T07:41:22;9.28;81.01
20862;DHT22;10591;52.532;13.348;2022-10-13T07:43:56;9.32;81.04
20862;DHT22;10591;52.532;13.348;2022-10-13T07:46:27;9.53;80.77
20862;DHT22;10591;52.532;13.348;2022-10-13T07:48:58;9.72;80.29
20862;DHT22;10591;52.532;13.348;2022-10-13T07:51:29;9.74;79.78
20862;DHT22;10591;52.532;13.348;2022-10-13T07:53:59;9.61;80.37
20862;DHT22;10591;52.532;13.348;2022-10-13T07:56:29;9.73;79.99
20862;DHT22;10591;52.532;13.348;2022-10-13T07:59:01;9.93;79.91
20862;DHT22;10591;52.532;13.348;2022-10-13T08:01:47;10.18;79.15
20862;DHT22;10591;52.532;13.348;2022-10-13T08:04:17;10.55;78.16
20862;DHT22;10591;52.532;13.348;2022-10-13T08:06:48;10.84;77.11
20862;DHT22;10591;52.532;13.348;2022-10-13T08:09:18;10.91;76.44
20862;DHT22;10591;52.532;13.348;2022-10-13T08:11:48;11.12;76.16
20862;DHT22;10591;52.532;13.348;2022-10-13T08:14:19;11.28;75.72
20862;DHT22;10591;52.532;13.348;2022-10-13T08:16:50;11.30;75.50
20862;DHT22;10591;52.532;13.348;2022-10-13T08:19:22;11.48;75.28
20862;DHT22;10591;52.532;13.348;2022-10-13T08:21:54;11.36;75.23
20862;DHT22;10591;52.532;13.348;2022-10-13T08:24:27;11.44;75.22
20862;DHT22;10591;52.532;13.348;2022-10-13T08:26:57;11.19;75.74
20862;DHT22;10591;52.532;13.348;2022-10-13T08:29:28;11.20;76.23
20862;DHT22;10591;52.532;13.348;2022-10-13T08:31:59;11.20;76.09
20862;DHT22;10591;52.532;13.348;2022-10-13T08:34:29;11.34;75.87
20862;DHT22;10591;52.532;13.348;2022-10-13T08:37:02;11.49;75.51
20862;DHT22;10591;52.532;13.348;2022-10-13T08:39:33;11.58;75.27
20862;DHT22;10591;52.532;13.348;2022-10-13T08:42:27;11.70;75.27
20862;DHT22;10591;52.532;13.348;2022-10-13T08:44:41;11.90;74.90
20862;DHT22;10591;52.532;13.348;2022-10-13T08:50:01;12.12;74.14
20862;DHT22;10591;52.532;13.348;2022-10-13T08:55:30;12.42;73.42
20862;DHT22;10591;52.532;13.348;2022-10-13T08:58:05;12.61;72.95
20862;DHT22;10591;52.532;13.348;2022-10-13T09:00:36;12.80;72.44
20862;DHT22;10591;52.532;13.348;2022-10-13T09:03:26;12.98;71.80
20862;DHT22;10591;52.532;13.348;2022-10-13T09:06:16;13.08;71.98
20862;DHT22;10591;52.532;13.348;2022-10-13T09:08:57;13.15;71.43
20862;DHT22;10591;52.532;13.348;2022-10-13T09:11:33;13.18;71.41
20862;DHT22;10591;52.532;13.348;2022-10-13T09:14:07;13.11;72.03
20862;DHT22;10591;52.532;13.348;2022-10-13T09:16:42;13.11;72.01
20862;DHT22;10591;52.532;13.348;2022-10-13T09:19:26;13.03;72.42
20862;DHT22;10591;52.532;13.348;2022-10-13T09:24:47;12.93;72.78
20862;DHT22;10591;52.532;13.348;2022-10-13T09:27:17;13.06;72.85
20862;DHT22;10591;52.532;13.348;2022-10-13T09:29:48;12.92;73.22
20862;DHT22;10591;52.532;13.348;2022-10-13T09:32:22;13.08;72.99
20862;DHT22;10591;52.532;13.348;2022-10-13T09:34:54;13.19;72.75
20862;DHT22;10591;52.532;13.348;2022-10-13T09:37:26;13.24;72.61
20862;DHT22;10591;52.532;13.348;2022-10-13T09:40:19;13.42;72.49
20862;DHT22;10591;52.532;13.348;2022-10-13T09:42:50;13.60;71.89
20862;DHT22;10591;52.532;13.348;2022-10-13T09:45:21;13.72;71.75
20862;DHT22;10591;52.532;13.348;2022-10-13T09:48:05;13.84;71.64
20862;DHT22;10591;52.532;13.348;2022-10-13T09:50:36;13.94;71.13
20862;DHT22;10591;52.532;13.348;2022-10-13T09:53:27;14.10;70.81
20862;DHT22;10591;52.532;13.348;2022-10-13T09:56:19;14.18;70.79
20862;DHT22;10591;52.532;13.348;2022-10-13T09:59:09;14.14;70.59
20862;DHT22;10591;52.532;13.348;2022-10-13T10:01:42;14.37;70.26
20862;DHT22;10591;52.532;13.348;2022-10-13T10:04:29;14.56;69.80
20862;DHT22;10591;52.532;13.348;2022-10-13T10:06:57;14.58;69.86
20862;DHT22;10591;52.532;13.348;2022-10-13T10:09:37;14.76;69.52
20862;DHT22;10591;52.532;13.348;2022-10-13T10:12:17;14.76;69.41
20862;DHT22;10591;52.532;13.348;2022-10-13T10:14:42;14.93;69.21
20862;DHT22;10591;52.532;13.348;2022-10-13T10:17:37;15.06;69.08
20862;DHT22;10591;52.532;13.348;2022-10-13T10:20:35;15.16;68.49
20862;DHT22;10591;52.532;13.348;2022-10-13T10:25:54;15.51;67.80
20862;DHT22;10591;52.532;13.348;2022-10-13T10:28:38;15.56;67.84
20862;DHT22;10591;52.532;13.348;2022-10-13T10:34:03;15.72;67.64
20862;DHT22;10591;52.532;13.348;2022-10-13T10:36:52;15.78;67.71
20862;DHT22;10591;52.532;13.348;2022-10-13T10:39:30;15.89;67.06
20862;DHT22;10591;52.532;13.348;2022-10-13T10:42:02;16.19;66.66
20862;DHT22;10591;52.532;13.348;2022-10-13T10:44:35;16.38;66.16
20862;DHT22;10591;52.532;13.348;2022-10-13T10:50:04;16.47;66.12
20862;DHT22;10591;52.532;13.348;2022-10-13T10:52:39;16.50;66.32
20862;DHT22;10591;52.532;13.348;2022-10-13T10:58:07;16.26;66.81
20862;DHT22;10591;52.532;13.348;2022-10-13T11:00:58;16.29;66.97
20862;DHT22;10591;52.532;13.348;2022-10-13T11:03:25;16.54;66.39
20862;DHT22;10591;52.532;13.348;2022-10-13T11:05:58;16.85;65.48
20862;DHT22;10591;52.532;13.348;2022-10-13T11:16:40;17.16;63.96
20862;DHT22;10591;52.532;13.348;2022-10-13T11:19:31;17.62;63.14
20862;DHT22;10591;52.532;13.348;2022-10-13T11:29:54;17.75;62.00
20862;DHT22;10591;52.532;13.348;2022-10-13T11:41:11;17.39;64.23
20862;DHT22;10591;52.532;13.348;2022-10-13T11:43:30;17.34;63.90
20862;DHT22;10591;52.532;13.348;2022-10-13T11:46:25;17.37;64.16
20862;DHT22;10591;52.532;13.348;2022-10-13T11:52:00;17.34;63.75
20862;DHT22;10591;52.532;13.348;2022-10-13T11:54:46;17.26;63.91
20862;DHT22;10591;52.532;13.348;2022-10-13T11:57:19;17.06;64.42
20862;DHT22;10591;52.532;13.348;2022-10-13T11:59:52;17.06;65.00
20862;DHT22;10591;52.532;13.348;2022-10-13T12:02:25;17.07;64.83
20862;DHT22;10591;52.532;13.348;2022-10-13T12:05:18;17.06;64.43
20862;DHT22;10591;52.532;13.348;2022-10-13T12:07:38;17.22;64.08
20862;DHT22;10591;52.532;13.348;2022-10-13T12:10:17;17.01;63.64
20862;DHT22;10591;52.532;13.348;2022-10-13T12:12:49;17.24;63.02
20862;DHT22;10591;52.532;13.348;2022-10-13T12:15:29;16.92;64.00
20862;DHT22;10591;52.532;13.348;2022-10-13T12:17:59;16.91;63.57
20862;DHT22;10591;52.532;13.348;2022-10-13T12:20:31;17.00;63.52
20862;DHT22;10591;52.532;13.348;2022-10-13T12:23:02;16.74;63.83
20862;DHT22;10591;52.532;13.348;2022-10-13T12:25:32;16.65;63.75
20862;DHT22;10591;52.532;13.348;2022-10-13T12:28:03;16.60;64.38
20862;DHT22;10591;52.532;13.348;2022-10-13T12:30:34;16.74;64.06
20862;DHT22;10591;52.532;13.348;2022-10-13T12:33:23;16.79;63.12
20862;DHT22;10591;52.532;13.348;2022-10-13T12:35:48;16.87;62.58
20862;DHT22;10591;52.532;13.348;2022-10-13T12:38:19;16.70;63.42
20862;DHT22;10591;52.532;13.348;2022-10-13T12:40:51;16.56;63.82
20862;DHT22;10591;52.532;13.348;2022-10-13T12:43:24;16.52;64.13
20862;DHT22;10591;52.532;13.348;2022-10-13T12:45:54;16.48;64.65
20862;DHT22;10591;52.532;13.348;2022-10-13T12:48:33;16.44;64.86
20862;DHT22;10591;52.532;13.348;2022-10-13T12:51:17;16.34;64.53
20862;DHT22;10591;52.532;13.348;2022-10-13T12:53:49;16.30;65.12
20862;DHT22;10591;52.532;13.348;2022-10-13T12:56:28;16.40;64.72
20862;DHT22;10591;52.532;13.348;2022-10-13T12:59:00;16.27;64.52
20862;DHT22;10591;52.532;13.348;2022-10-13T13:01:33;16.24;65.00
20862;DHT22;10591;52.532;13.348;2022-10-13T13:07:00;16.19;64.56
20862;DHT22;10591;52.532;13.348;2022-10-13T13:09:32;16.17;64.65
20862;DHT22;10591;52.532;13.348;2022-10-13T13:14:44;16.04;64.60
20862;DHT22;10591;52.532;13.348;2022-10-13T13:17:25;15.96;64.35
20862;DHT22;10591;52.532;13.348;2022-10-13T13:19:57;15.97;64.50
20862;DHT22;10591;52.532;13.348;2022-10-13T13:22:28;16.06;64.17
20862;DHT22;10591;52.532;13.348;2022-10-13T13:24:58;16.17;63.85
20862;DHT22;10591;52.532;13.348;2022-10-13T13:27:34;16.27;64.49
20862;DHT22;10591;52.532;13.348;2022-10-13T13:30:16;16.28;65.04
20862;DHT22;10591;52.532;13.348;2022-10-13T13:32:42;16.24;65.11
20862;DHT22;10591;52.532;13.348;2022-10-13T13:35:12;16.34;65.33
20862;DHT22;10591;52.532;13.348;2022-10-13T13:37:47;16.36;64.99
20862;DHT22;10591;52.532;13.348;2022-10-13T13:40:26;16.14;65.49
20862;DHT22;10591;52.532;13.348;2022-10-13T13:42:52;16.06;65.62
20862;DHT22;10591;52.532;13.348;2022-10-13T13:45:23;16.06;65.26
20862;DHT22;10591;52.532;13.348;2022-10-13T13:47:54;16.06;65.76
20862;DHT22;10591;52.532;13.348;2022-10-13T13:50:32;16.10;64.92
20862;DHT22;10591;52.532;13.348;2022-10-13T13:52:59;16.20;64.88
20862;DHT22;10591;52.532;13.348;2022-10-13T13:55:30;16.24;64.72
20862;DHT22;10591;52.532;13.348;2022-10-13T13:58:01;16.28;64.41
20862;DHT22;10591;52.532;13.348;2022-10-13T14:00:32;16.40;63.92
20862;DHT22;10591;52.532;13.348;2022-10-13T14:03:03;16.42;63.95
20862;DHT22;10591;52.532;13.348;2022-10-13T14:05:37;16.65;63.53
20862;DHT22;10591;52.532;13.348;2022-10-13T14:08:06;16.73;62.76
20862;DHT22;10591;52.532;13.348;2022-10-13T14:10:38;16.84;62.75
20862;DHT22;10591;52.532;13.348;2022-10-13T14:13:09;17.05;62.32
20862;DHT22;10591;52.532;13.348;2022-10-13T14:15:40;16.94;62.24
20862;DHT22;10591;52.532;13.348;2022-10-13T14:18:10;16.85;62.92
20862;DHT22;10591;52.532;13.348;2022-10-13T14:20:41;16.72;62.58
20862;DHT22;10591;52.532;13.348;2022-10-13T14:23:12;16.61;63.32
20862;DHT22;10591;52.532;13.348;2022-10-13T14:25:42;16.44;64.04
20862;DHT22;10591;52.532;13.348;2022-10-13T14:28:13;16.31;64.39
20862;DHT22;10591;52.532;13.348;2022-10-13T14:30:46;16.34;64.70
20862;DHT22;10591;52.532;13.348;2022-10-13T14:33:27;16.32;64.70
20862;DHT22;10591;52.532;13.348;2022-10-13T14:36:06;16.32;64.85
20862;DHT22;10591;52.532;13.348;2022-10-13T14:38:37;16.26;65.12
20862;DHT22;10591;52.532;13.348;2022-10-13T14:41:08;16.20;65.28
20862;DHT22;10591;52.532;13.348;2022-10-13T14:43:39;16.19;65.22
20862;DHT22;10591;52.532;13.348;2022-10-13T14:46:09;16.22;65.05
20862;DHT22;10591;52.532;13.348;2022-10-13T14:48:39;16.20;65.02
20862;DHT22;10591;52.532;13.348;2022-10-13T14:51:10;16.28;65.29
20862;DHT22;10591;52.532;13.348;2022-10-13T14:53:42;16.23;64.77
20862;DHT22;10591;52.532;13.348;2022-10-13T14:56:22;16.40;65.56
20862;DHT22;10591;52.532;13.348;2022-10-13T14:58:58;16.24;64.95
20862;DHT22;10591;52.532;13.348;2022-10-13T15:01:29;16.14;65.89
20862;DHT22;10591;52.532;13.348;2022-10-13T15:04:02;16.12;65.09
20862;DHT22;10591;52.532;13.348;2022-10-13T15:06:33;16.09;64.58
20862;DHT22;10591;52.532;13.348;2022-10-13T15:09:03;15.98;65.44
20862;DHT22;10591;52.532;13.348;2022-10-13T15:11:34;15.99;65.49
20862;DHT22;10591;52.532;13.348;2022-10-13T15:14:05;15.90;64.77
20862;DHT22;10591;52.532;13.348;2022-10-13T15:16:36;15.81;64.84
20862;DHT22;10591;52.532;13.348;2022-10-13T15:19:06;15.63;65.52
20862;DHT22;10591;52.532;13.348;2022-10-13T15:21:37;15.55;65.68
20862;DHT22;10591;52.532;13.348;2022-10-13T15:24:09;15.40;65.82
20862;DHT22;10591;52.532;13.348;2022-10-13T15:26:40;15.30;66.31
20862;DHT22;10591;52.532;13.348;2022-10-13T15:29:10;15.28;66.30
20862;DHT22;10591;52.532;13.348;2022-10-13T15:31:41;15.22;66.49
20862;DHT22;10591;52.532;13.348;2022-10-13T15:34:11;15.26;66.25
20862;DHT22;10591;52.532;13.348;2022-10-13T15:36:42;15.08;67.08
20862;DHT22;10591;52.532;13.348;2022-10-13T15:39:12;14.95;68.03
20862;DHT22;10591;52.532;13.348;2022-10-13T15:41:42;14.89;68.57
20862;DHT22;10591;52.532;13.348;2022-10-13T15:44:13;14.84;68.35
20862;DHT22;10591;52.532;13.348;2022-10-13T15:46:46;14.90;68.13
20862;DHT22;10591;52.532;13.348;2022-10-13T15:49:18;14.72;69.31
20862;DHT22;10591;52.532;13.348;2022-10-13T15:51:48;14.66;70.09
20862;DHT22;10591;52.532;13.348;2022-10-13T15:54:20;14.62;69.71
20862;DHT22;10591;52.532;13.348;2022-10-13T15:56:51;14.65;69.54
20862;DHT22;10591;52.532;13.348;2022-10-13T15:59:21;14.54;69.64
20862;DHT22;10591;52.532;13.348;2022-10-13T16:01:53;14.52;69.77
20862;DHT22;10591;52.532;13.348;2022-10-13T16:04:24;14.47;70.90
20862;DHT22;10591;52.532;13.348;2022-10-13T16:06:54;14.46;70.79
20862;DHT22;10591;52.532;13.348;2022-10-13T16:09:24;14.41;70.92
20862;DHT22;10591;52.532;13.348;2022-10-13T16:11:55;14.34;71.63
20862;DHT22;10591;52.532;13.348;2022-10-13T16:14:27;14.28;72.10
20862;DHT22;10591;52.532;13.348;2022-10-13T16:16:57;14.22;72.70
20862;DHT22;10591;52.532;13.348;2022-10-13T16:19:27;14.17;72.72
20862;DHT22;10591;52.532;13.348;2022-10-13T16:21:58;14.12;72.07
20862;DHT22;10591;52.532;13.348;2022-10-13T16:24:28;14.08;73.11
20862;DHT22;10591;52.532;13.348;2022-10-13T16:26:59;14.07;73.15
20862;DHT22;10591;52.532;13.348;2022-10-13T16:29:30;13.99;73.96
20862;DHT22;10591;52.532;13.348;2022-10-13T16:32:01;13.94;74.32
20862;DHT22;10591;52.532;13.348;2022-10-13T16:34:31;13.90;73.39
20862;DHT22;10591;52.532;13.348;2022-10-13T16:37:02;13.85;73.93
20862;DHT22;10591;52.532;13.348;2022-10-13T16:39:32;13.75;74.62
20862;DHT22;10591;52.532;13.348;2022-10-13T16:42:04;13.70;74.59
20862;DHT22;10591;52.532;13.348;2022-10-13T16:44:35;13.66;75.26
20862;DHT22;10591;52.532;13.348;2022-10-13T16:47:05;13.62;75.50
20862;DHT22;10591;52.532;13.348;2022-10-13T16:49:36;13.60;75.37
20862;DHT22;10591;52.532;13.348;2022-10-13T16:52:06;13.58;76.04
20862;DHT22;10591;52.532;13.348;2022-10-13T16:54:37;13.57;76.04
20862;DHT22;10591;52.532;13.348;2022-10-13T16:57:07;13.52;76.13
20862;DHT22;10591;52.532;13.348;2022-10-13T16:59:38;13.52;76.24
20862;DHT22;10591;52.532;13.348;2022-10-13T17:02:13;13.52;76.31
20862;DHT22;10591;52.532;13.348;2022-10-13T17:04:44;13.45;76.25
20862;DHT22;10591;52.532;13.348;2022-10-13T17:07:14;13.40;76.60
20862;DHT22;10591;52.532;13.348;2022-10-13T17:09:44;13.38;76.80
20862;DHT22;10591;52.532;13.348;2022-10-13T17:12:16;13.38;75.69
20862;DHT22;10591;52.532;13.348;2022-10-13T17:14:47;13.34;76.51
20862;DHT22;10591;52.532;13.348;2022-10-13T17:17:18;13.28;76.83
20862;DHT22;10591;52.532;13.348;2022-10-13T17:19:48;13.28;76.91